Time,TemperatureF,DewpointF,PressureIn,WindDirection,WindDirectionDegrees,WindSpeedMPH,WindSpeedGustMPH,Humidity,HourlyPrecipIn,Conditions,Clouds,dailyrainin,SoftwareType,DateUTC
2013-02-10 00:21:00,25.0,13.0,-100.00,NE,40,4.0,6.0,62,-99.99,,,-99.99,,2013-02-10 06:21:00,
2013-02-10 01:21:00,24.0,12.0,-100.00,NE,45,2.0,4.0,62,-99.99,,,-99.99,,2013-02-10 07:21:00,
2013-02-10 02:21:00,23.0,12.0,-100.00,NE,40,4.0,6.0,62,-99.99,,,-99.99,,2013-02-10 08:21:00,
2013-02-10 03:21:00,23.0,12.0,-100.00,NE,35,3.0,4.0,62,-99.99,,,-99.99,,2013-02-10 09:21:00,
2013-02-10 04:21:00,24.0,13.0,-100.00,NE,40,4.0,7.0,62,-99.99,,,-99.99,,2013-02-10 10:21:00,
2013-02-10 05:22:00,27.0,16.0,-100.00,NE,45,4.0,6.0,62,-99.99,,,-99.99,,2013-02-10 11:22:00,
2013-02-10 05:32:00,27.0,16.0,-100.00,NE,45,4.0,6.0,62,-99.99,,,-99.99,,2013-02-10 11:32:00,
2013-02-10 05:42:00,27.0,16.0,-100.00,NE,45,4.0,6.0,62,-99.99,,,-99.99,,2013-02-10 11:42:00,
2013-02-10 05:52:00,27.0,16.0,-100.00,NE,45,4.0,6.0,62,-99.99,,,-99.99,,2013-02-10 11:52:00,
2013-02-10 06:00:00,29.0,23.0,-100.00,NE,40,4.0,6.0,78,-99.99,,,-99.99,,2013-02-10 12:00:00,
2013-02-10 06:22:00,29.0,23.0,-100.00,NE,40,4.0,6.0,78,-99.99,,,-99.99,,2013-02-10 12:22:00,
2013-02-10 06:32:00,29.0,23.0,-100.00,NE,40,4.0,6.0,78,-99.99,,,-99.99,,2013-02-10 12:32:00,
2013-02-10 06:42:00,29.0,23.0,-100.00,NE,40,4.0,6.0,78,-99.99,,,-99.99,,2013-02-10 12:42:00,
2013-02-10 06:52:00,29.0,23.0,-100.00,NE,40,4.0,6.0,78,-99.99,,,-99.99,,2013-02-10 12:52:00,
2013-02-10 07:00:00,30.0,24.0,-100.00,NE,40,5.0,7.0,77,-99.99,,,-99.99,,2013-02-10 13:00:00,
2013-02-10 07:21:00,30.0,24.0,-100.00,NE,40,5.0,7.0,77,-99.99,,,-99.99,,2013-02-10 13:21:00,
2013-02-10 07:32:00,30.0,24.0,-100.00,NE,40,5.0,7.0,77,-99.99,,,-99.99,,2013-02-10 13:32:00,
2013-02-10 07:42:00,30.0,24.0,-100.00,NE,40,5.0,7.0,77,-99.99,,,-99.99,,2013-02-10 13:42:00,
2013-02-10 07:52:00,30.0,24.0,-100.00,NE,40,5.0,7.0,77,-99.99,,,-99.99,,2013-02-10 13:52:00,
2013-02-10 08:22:00,32.0,21.0,-100.00,NE,45,7.0,11.0,62,-99.99,,,-99.99,,2013-02-10 14:22:00,
2013-02-10 09:22:00,33.0,22.0,-100.00,NE,50,6.0,14.0,62,-99.99,,,-99.99,,2013-02-10 15:22:00,
2013-02-10 10:22:00,35.0,23.0,-100.00,NE,55,7.0,14.0,62,-99.99,,,-99.99,,2013-02-10 16:22:00,
2013-02-10 11:22:00,36.0,24.0,-100.00,NE,45,11.0,20.0,62,-99.99,,,-99.99,,2013-02-10 17:22:00,
2013-02-10 12:22:00,37.0,25.0,-100.00,NE,55,7.0,16.0,62,-99.99,,,-99.99,,2013-02-10 18:22:00,
2013-02-10 13:22:00,37.0,26.0,-100.00,ENE,60,7.0,19.0,62,-99.99,,,-99.99,,2013-02-10 19:22:00,
2013-02-10 14:22:00,38.0,26.0,-100.00,ENE,65,5.0,15.0,62,-99.99,,,-99.99,,2013-02-10 20:22:00,
2013-02-10 15:22:00,39.0,27.0,-100.00,ENE,70,5.0,16.0,62,-99.99,,,-99.99,,2013-02-10 21:22:00,
2013-02-10 16:22:00,39.0,27.0,-100.00,East,80,7.0,12.0,62,-99.99,,,-99.99,,2013-02-10 22:22:00,
2013-02-10 17:22:00,39.0,27.0,-100.00,ENE,75,4.0,7.0,62,-99.99,,,-99.99,,2013-02-10 23:22:00,
2013-02-10 18:22:00,40.0,28.0,-100.00,ENE,70,6.0,16.0,62,-99.99,,,-99.99,,2013-02-11 00:22:00,
2013-02-10 19:21:00,40.0,29.0,-100.00,ENE,70,7.0,15.0,63,-99.99,,,-99.99,,2013-02-11 01:21:00,
2013-02-10 20:21:00,42.0,30.0,-100.00,ENE,65,11.0,17.0,63,-99.99,,,-99.99,,2013-02-11 02:21:00,
2013-02-10 21:21:00,42.0,30.0,-100.00,East,85,10.0,21.0,63,-99.99,,,-99.99,,2013-02-11 03:21:00,
2013-02-10 22:22:00,40.0,28.0,-100.00,East,100,22.0,44.0,62,-99.99,,,-99.99,,2013-02-11 04:22:00,
2013-02-10 23:22:00,39.0,27.0,-100.00,East,90,14.0,22.0,62,-99.99,,,-99.99,,2013-02-11 05:22:00,